Terminal Aerodrome Forecast
Issued by NWS

Home | Current Version | Previous Version | Graphics & Text | Print | Product List | Glossary On
Versions: 1 2 3 4 5 6 7 8 9 10 11 12 13 14 15
000
FTUS43 KICT 261724 AAB
TAFSLN
TAF AMD
KSLN 261724Z 2617/2718 18016G24KT P6SM SCT150
      TEMPO 2618/2620 -TSRA BKN120CB
     FM262200 22014G20KT P6SM VCTS BKN140CB
     FM270200 32011KT P6SM VCTS BKN140CB
     FM270600 36012KT P6SM VCTS BKN120CB
     FM271100 36012KT P6SM OVC015
     FM271700 01012KT P6SM BKN035=

USA.gov is the U.S. government's official web portal to all federal, state and local government web resources and services.